Time;durP1;ratioP1;P1;durP2;ratioP2;P2;SDS_P1;SDS_P2;PMS_P1;PMS_P2;Temp;Humidity;BMP_temperature;BMP_pressure;BME280_temperature;BME280_humidity;BME280_pressure;Samples;Min_cycle;Max_cycle;Signal;HPM_P1;HPM_P2
2021/06/15 00:00:44;;;;;;;0.47;0.47;;;;;;;16.74;56.71;99105.94;5101224;28;42200;-74
2021/06/15 00:03:12;;;;;;;0.77;0.53;;;;;;;16.69;56.39;99108.19;5101158;28;39634;-72
2021/06/15 00:05:43;;;;;;;0.33;0.33;;;;;;;16.66;56.66;99111.94;5112032;28;41653;-73
2021/06/15 00:08:11;;;;;;;0.50;0.50;;;;;;;16.60;56.83;99106.22;5121234;27;43460;-75
2021/06/15 00:10:39;;;;;;;0.70;0.70;;;;;;;16.53;57.32;99100.53;5112791;27;42393;-76
2021/06/15 00:13:09;;;;;;;0.73;0.73;;;;;;;16.51;57.25;99098.00;5110987;27;39954;-72
2021/06/15 00:15:40;;;;;;;0.87;0.50;;;;;;;16.46;57.57;99105.53;5106932;28;41875;-81
2021/06/15 00:18:08;;;;;;;0.97;0.73;;;;;;;16.43;57.10;99100.47;5092055;28;42435;-76
2021/06/15 00:20:36;;;;;;;0.70;0.70;;;;;;;16.40;57.35;99105.22;5090678;28;42303;-78
2021/06/15 00:23:03;;;;;;;0.70;0.50;;;;;;;16.39;57.44;99106.19;5090445;28;39842;-73
2021/06/15 00:25:32;;;;;;;1.00;1.00;;;;;;;16.35;57.27;99112.75;5100916;28;42570;-77
2021/06/15 00:28:00;;;;;;;1.00;1.00;;;;;;;16.33;57.31;99112.00;5105333;28;42711;-78
2021/06/15 00:30:29;;;;;;;0.77;0.77;;;;;;;16.31;57.49;99105.97;5105194;28;42813;-80
2021/06/15 00:32:57;;;;;;;0.50;0.50;;;;;;;16.28;57.44;99106.22;5093417;28;40489;-80
2021/06/15 00:35:25;;;;;;;0.47;0.40;;;;;;;16.27;57.29;99112.53;5108541;28;41842;-76
2021/06/15 00:37:53;;;;;;;0.73;0.73;;;;;;;16.23;57.43;99116.41;5110743;27;43357;-73
2021/06/15 00:40:22;;;;;;;0.60;0.60;;;;;;;16.19;57.41;99123.00;5108082;28;42848;-78
2021/06/15 00:42:50;;;;;;;0.50;0.50;;;;;;;16.15;57.61;99114.38;5107153;28;20233;-81
2021/06/15 00:45:21;;;;;;;0.50;0.50;;;;;;;16.10;57.90;99108.56;5104534;28;42523;-73
2021/06/15 00:47:51;;;;;;;0.47;0.47;;;;;;;16.06;58.32;99102.63;5089176;28;42753;-81
2021/06/15 00:50:20;;;;;;;0.83;0.70;;;;;;;16.02;58.17;99103.84;5104825;28;42244;-74
2021/06/15 00:52:51;;;;;;;0.43;0.43;;;;;;;15.93;58.52;99091.22;5099090;28;40003;-73
2021/06/15 00:55:21;;;;;;;0.30;0.30;;;;;;;15.89;58.53;99092.44;5109124;28;40651;-82
2021/06/15 00:57:48;;;;;;;0.57;0.57;;;;;;;15.87;58.68;99102.41;5107984;28;42677;-81
2021/06/15 01:00:18;;;;;;;0.70;0.47;;;;;;;15.82;58.91;99101.94;5089299;28;42659;-75
2021/06/15 01:02:47;;;;;;;0.67;0.60;;;;;;;15.77;59.25;99101.44;5089529;28;39719;-76
2021/06/15 01:05:19;;;;;;;0.70;0.70;;;;;;;15.71;59.58;99096.56;5089480;28;42386;-79
2021/06/15 01:07:58;;;;;;;0.70;0.70;;;;;;;15.67;59.23;99100.47;5104937;27;42787;-80
2021/06/15 01:10:40;;;;;;;0.63;0.47;;;;;;;15.62;59.22;99108.00;5089483;28;42140;-77
2021/06/15 01:13:21;;;;;;;0.60;0.53;;;;;;;15.54;59.63;99102.38;5086951;28;39628;-77
2021/06/15 01:16:01;;;;;;;0.60;0.60;;;;;;;15.51;59.89;99102.63;5088412;28;41974;-80
2021/06/15 01:18:32;;;;;;;0.67;0.67;;;;;;;15.46;59.67;99103.81;5114516;27;41457;-78
2021/06/15 01:21:05;;;;;;;0.37;0.37;;;;;;;15.43;59.95;99098.75;5108229;28;42148;-77
2021/06/15 01:23:57;;;;;;;0.50;0.50;;;;;;;15.39;59.85;99104.44;5108391;28;39744;-78
2021/06/15 01:26:54;;;;;;;0.40;0.40;;;;;;;15.34;60.37;99109.28;5103862;28;40918;-77
2021/06/15 01:29:29;;;;;;;0.40;0.40;;;;;;;15.29;60.32;99109.66;5103081;28;42228;-81
2021/06/15 01:32:00;;;;;;;0.40;0.40;;;;;;;15.28;60.32;99120.44;5088969;28;42165;-78
2021/06/15 01:34:32;;;;;;;1.13;0.60;;;;;;;15.23;60.31;99117.25;5108998;27;40306;-75
2021/06/15 01:37:08;;;;;;;0.30;0.27;;;;;;;15.20;60.29;99113.03;5109169;27;41761;-79
2021/06/15 01:39:42;;;;;;;0.57;0.57;;;;;;;15.17;60.76;99110.59;5108250;28;43125;-78
2021/06/15 01:42:33;;;;;;;0.73;0.73;;;;;;;15.16;60.91;99116.06;5092018;28;42138;-80
2021/06/15 01:45:08;;;;;;;0.50;0.50;;;;;;;15.13;60.50;99114.47;5089138;28;39876;-78
2021/06/15 01:47:37;;;;;;;1.00;0.57;;;;;;;15.12;61.00;99115.44;5107584;28;41537;-74
2021/06/15 01:50:07;;;;;;;0.67;0.50;;;;;;;15.09;60.88;99119.16;5107282;28;42401;-77
2021/06/15 01:52:38;;;;;;;0.57;0.57;;;;;;;15.07;60.79;99112.28;5102349;28;42089;-75
2021/06/15 01:55:08;;;;;;;0.70;0.50;;;;;;;15.05;60.99;99109.72;5102207;28;39700;-78
2021/06/15 01:57:54;;;;;;;0.50;0.50;;;;;;;15.03;60.96;99108.13;5091488;28;41660;-79
2021/06/15 02:00:26;;;;;;;0.53;0.53;;;;;;;15.01;60.92;99107.41;5090109;28;42888;-80
2021/06/15 02:02:59;;;;;;;0.60;0.60;;;;;;;14.99;60.90;99104.84;5091870;28;42954;-78
2021/06/15 02:05:49;;;;;;;0.47;0.47;;;;;;;14.97;61.22;99108.59;5107748;28;39942;-77
2021/06/15 02:08:29;;;;;;;0.70;0.70;;;;;;;14.94;61.10;99100.84;5106579;28;41531;-74
2021/06/15 02:11:00;;;;;;;0.70;0.70;;;;;;;14.91;61.80;99090.41;5111568;28;42528;-80
2021/06/15 02:13:48;;;;;;;0.97;0.50;;;;;;;14.86;62.34;99097.91;5111492;28;41996;-78
2021/06/15 02:16:37;;;;;;;0.47;0.40;;;;;;;14.79;62.30;99094.84;5100120;28;39221;-73
2021/06/15 02:19:24;;;;;;;0.60;0.60;;;;;;;14.74;62.15;99089.88;5089801;28;41751;-75
2021/06/15 02:22:01;;;;;;;0.43;0.43;;;;;;;14.66;62.10;99086.94;5091420;28;41782;-78
2021/06/15 02:24:33;;;;;;;0.50;0.50;;;;;;;14.62;62.22;99085.47;5110143;28;42912;-80
2021/06/15 02:27:04;;;;;;;0.40;0.40;;;;;;;14.64;62.01;99096.88;5093747;28;38996;-75
2021/06/15 02:29:33;;;;;;;0.30;0.30;;;;;;;14.62;61.93;99096.13;5110662;28;41952;-76
2021/06/15 02:32:03;;;;;;;0.53;0.53;;;;;;;14.58;61.91;99092.00;5099750;27;42737;-78
2021/06/15 02:34:37;;;;;;;1.10;0.53;;;;;;;14.53;62.33;99087.97;5106890;28;42306;-77
2021/06/15 02:37:11;;;;;;;0.50;0.50;;;;;;;14.53;62.30;99094.16;5106941;28;40780;-84
2021/06/15 02:39:40;;;;;;;0.50;0.50;;;;;;;14.50;62.03;99091.72;5090322;28;41686;-73
2021/06/15 02:42:11;;;;;;;0.40;0.40;;;;;;;14.49;62.06;99100.66;5089315;28;42572;-79
2021/06/15 02:44:42;;;;;;;0.90;0.90;;;;;;;14.47;62.40;99101.75;5107135;28;42331;-80
2021/06/15 02:47:16;;;;;;;0.60;0.50;;;;;;;14.45;62.45;99098.38;5100316;28;40026;-80
2021/06/15 02:49:50;;;;;;;0.50;0.50;;;;;;;14.42;62.39;99104.78;5093032;28;42148;-78
2021/06/15 02:52:25;;;;;;;0.50;0.50;;;;;;;14.36;62.62;99094.53;5111451;27;43421;-77
2021/06/15 02:54:59;;;;;;;0.60;0.60;;;;;;;14.35;63.07;99100.81;5090309;28;42241;-74
2021/06/15 02:57:27;;;;;;;0.50;0.50;;;;;;;14.32;62.98;99101.06;5089606;28;38556;-75
2021/06/15 02:59:58;;;;;;;0.70;0.70;;;;;;;14.29;62.99;99109.28;5089102;28;41481;-80
2021/06/15 03:02:28;;;;;;;0.50;0.43;;;;;;;14.26;63.20;99101.50;5100102;28;42370;-76
2021/06/15 03:04:56;;;;;;;0.90;0.70;;;;;;;14.24;63.23;99116.72;5110047;28;42205;-77
2021/06/15 03:07:25;;;;;;;1.00;0.50;;;;;;;14.12;63.48;99091.00;5110165;28;39658;-79
2021/06/15 03:09:56;;;;;;;0.40;0.40;;;;;;;14.18;63.26;99104.72;5110505;28;42283;-79
2021/06/15 03:12:32;;;;;;;0.40;0.40;;;;;;;14.17;63.44;99100.38;5102290;28;42766;-79
2021/06/15 03:15:06;;;;;;;0.30;0.30;;;;;;;14.11;63.64;99099.94;5090037;28;42237;-75
2021/06/15 03:17:39;;;;;;;0.30;0.30;;;;;;;14.14;63.44;99116.56;5091170;28;40380;-79
2021/06/15 03:20:10;;;;;;;0.57;0.57;;;;;;;14.12;63.42;99118.47;5090260;28;40864;-73
2021/06/15 03:22:50;;;;;;;0.70;0.70;;;;;;;14.12;63.53;99117.63;5105993;28;42859;-76
2021/06/15 03:25:24;;;;;;;0.53;0.53;;;;;;;14.10;63.59;99122.22;5072559;28;41217;-77
2021/06/15 03:27:56;;;;;;;3.10;0.60;;;;;;;14.08;63.42;99118.84;5111800;27;39664;-74
2021/06/15 03:30:26;;;;;;;0.43;0.43;;;;;;;14.08;63.65;99121.50;5111349;27;41790;-75
2021/06/15 03:33:00;;;;;;;0.50;0.40;;;;;;;14.08;63.79;99121.50;5109473;28;43485;-82
2021/06/15 03:35:32;;;;;;;0.50;0.50;;;;;;;14.04;63.66;99126.19;5109808;28;42209;-74
2021/06/15 03:38:02;;;;;;;0.43;0.30;;;;;;;14.07;63.68;99128.63;5093280;27;40737;-76
2021/06/15 03:40:34;;;;;;;0.53;0.53;;;;;;;14.08;63.59;99132.16;5089848;28;41327;-75
2021/06/15 03:43:03;;;;;;;1.70;0.77;;;;;;;14.09;63.50;99133.84;5105287;28;42135;-79
2021/06/15 03:45:36;;;;;;;1.60;0.60;;;;;;;14.10;63.67;99136.38;5089731;28;42865;-78
2021/06/15 03:48:06;;;;;;;0.33;0.33;;;;;;;14.10;63.63;99139.03;5104542;28;39698;-76
2021/06/15 03:50:36;;;;;;;0.63;0.57;;;;;;;14.13;63.64;99132.66;5089397;28;41380;-73
2021/06/15 03:53:08;;;;;;;0.60;0.60;;;;;;;14.17;63.64;99136.81;5089056;28;41838;-81
2021/06/15 03:55:38;;;;;;;0.40;0.40;;;;;;;14.19;63.44;99137.56;5093962;28;42283;-83
2021/06/15 03:58:08;;;;;;;0.40;0.40;;;;;;;14.24;63.41;99133.56;5110057;27;40169;-76
2021/06/15 04:00:43;;;;;;;0.80;0.50;;;;;;;14.32;63.09;99143.69;5111042;27;41723;-74
2021/06/15 04:03:15;;;;;;;0.43;0.43;;;;;;;14.38;63.28;99128.09;5091853;28;41858;-71
2021/06/15 04:05:44;;;;;;;0.73;0.73;;;;;;;14.45;62.83;99136.53;5095671;27;42186;-78
2021/06/15 04:08:14;;;;;;;0.73;0.73;;;;;;;14.51;62.95;99136.06;5088896;28;39776;-75
2021/06/15 04:10:45;;;;;;;0.30;0.30;;;;;;;14.60;62.97;99132.69;5089926;28;42382;-75
2021/06/15 04:13:15;;;;;;;0.93;0.80;;;;;;;14.69;63.05;99145.38;5092940;28;42396;-74
2021/06/15 04:15:45;;;;;;;0.63;0.60;;;;;;;14.77;62.75;99141.25;5110739;27;42850;-75
2021/06/15 04:18:16;;;;;;;0.70;0.70;;;;;;;14.84;62.86;99148.66;5109976;27;39465;-77
2021/06/15 04:20:47;;;;;;;0.30;0.30;;;;;;;14.90;63.00;99145.56;5110235;27;42437;-75
2021/06/15 04:23:20;;;;;;;0.40;0.40;;;;;;;14.97;62.74;99146.78;5097214;27;42730;-74
2021/06/15 04:25:49;;;;;;;0.40;0.40;;;;;;;15.03;62.89;99149.00;5105148;28;43053;-76
2021/06/15 04:28:18;;;;;;;0.40;0.40;;;;;;;15.11;62.65;99148.41;5088845;28;40044;-75
2021/06/15 04:30:46;;;;;;;0.40;0.40;;;;;;;15.20;62.75;99144.19;5101161;28;41619;-75
2021/06/15 04:33:18;;;;;;;0.27;0.27;;;;;;;15.29;62.57;99149.66;5109089;27;43516;-71
2021/06/15 04:35:49;;;;;;;2.00;1.30;;;;;;;15.39;62.66;99139.97;5106895;28;41735;-74
2021/06/15 04:38:21;;;;;;;1.27;0.50;;;;;;;15.50;62.61;99148.97;5106857;27;40567;-72
2021/06/15 04:40:51;;;;;;;0.70;0.70;;;;;;;15.57;62.47;99159.09;5111590;27;42463;-76
2021/06/15 04:43:30;;;;;;;0.97;0.97;;;;;;;15.64;62.38;99154.13;5099259;27;41727;-75
2021/06/15 04:46:04;;;;;;;0.47;0.47;;;;;;;15.71;62.05;99152.66;5132278;27;42938;-74
2021/06/15 04:48:35;;;;;;;0.50;0.50;;;;;;;15.78;62.01;99153.88;5133623;27;40053;-72
2021/06/15 04:51:03;;;;;;;0.60;0.60;;;;;;;15.87;61.98;99161.16;5118375;27;42353;-76
2021/06/15 04:53:35;;;;;;;1.13;0.60;;;;;;;16.01;61.85;99157.38;5118515;27;42648;-73
2021/06/15 04:56:04;;;;;;;0.53;0.53;;;;;;;16.13;61.75;99156.41;5100998;27;41085;-74
2021/06/15 04:58:35;;;;;;;0.40;0.40;;;;;;;16.28;61.82;99152.50;5116224;27;39915;-75
2021/06/15 05:01:04;;;;;;;0.50;0.50;;;;;;;16.43;61.57;99153.09;5117849;27;40809;-77
2021/06/15 05:03:34;;;;;;;0.80;0.80;;;;;;;16.58;61.57;99161.63;5101973;27;43069;-74
2021/06/15 05:06:05;;;;;;;0.67;0.67;;;;;;;16.73;61.41;99158.59;5119217;27;42173;-74
2021/06/15 05:08:38;;;;;;;1.03;1.00;;;;;;;16.75;61.56;99143.28;5130012;27;39878;-75
2021/06/15 05:11:07;;;;;;;1.00;0.83;;;;;;;16.97;61.72;99146.81;5145423;27;42342;-76
2021/06/15 05:13:37;;;;;;;1.13;1.03;;;;;;;17.12;61.47;99153.56;5128507;27;42436;-73
2021/06/15 05:16:06;;;;;;;0.43;0.43;;;;;;;17.24;61.42;99149.84;5129644;27;42988;-73
2021/06/15 05:18:37;;;;;;;0.80;0.80;;;;;;;17.38;61.48;99156.69;5124860;27;38908;-74
2021/06/15 05:21:10;;;;;;;1.10;1.10;;;;;;;17.51;61.21;99165.38;5093284;28;40431;-73
2021/06/15 05:23:44;;;;;;;0.80;0.80;;;;;;;17.65;60.99;99170.44;5111177;28;42775;-74
2021/06/15 05:26:13;;;;;;;1.03;1.03;;;;;;;17.78;60.72;99165.72;5112319;27;42206;-73
2021/06/15 05:28:41;;;;;;;0.67;0.67;;;;;;;17.91;60.56;99173.53;5110613;28;39942;-73
2021/06/15 05:31:09;;;;;;;0.90;0.80;;;;;;;18.03;60.15;99175.13;5110870;28;41413;-75
2021/06/15 05:33:38;;;;;;;2.57;0.83;;;;;;;18.15;60.01;99165.16;5103105;27;42739;-73
2021/06/15 05:36:06;;;;;;;1.10;1.00;;;;;;;18.23;60.01;99168.84;5090279;28;41050;-75
2021/06/15 05:38:34;;;;;;;0.60;0.60;;;;;;;18.36;59.78;99170.41;5091763;28;39981;-73
2021/06/15 05:41:02;;;;;;;1.00;1.00;;;;;;;18.47;59.54;99171.16;5106185;28;42404;-74
2021/06/15 05:43:30;;;;;;;0.90;0.90;;;;;;;18.61;59.29;99169.94;5090794;28;42751;-73
2021/06/15 05:45:58;;;;;;;1.73;1.10;;;;;;;18.67;59.04;99172.06;5090304;28;42885;-73
2021/06/15 05:48:25;;;;;;;1.27;0.83;;;;;;;18.77;59.01;99170.25;5090151;28;39086;-72
2021/06/15 05:50:55;;;;;;;0.63;0.63;;;;;;;18.87;59.36;99171.09;5106679;28;41798;-75
2021/06/15 05:53:22;;;;;;;0.80;0.80;;;;;;;19.18;58.77;99173.63;5110108;28;43168;-76
2021/06/15 05:55:50;;;;;;;1.10;1.00;;;;;;;19.60;57.36;99180.38;5111931;27;42553;-77
2021/06/15 05:58:18;;;;;;;1.37;1.10;;;;;;;20.06;56.59;99189.44;5111512;27;39468;-74
2021/06/15 06:00:49;;;;;;;0.80;0.80;;;;;;;20.25;55.98;99183.97;5112414;27;41650;-75
2021/06/15 06:03:22;;;;;;;0.97;0.93;;;;;;;20.29;56.12;99188.03;5110076;28;42729;-76
2021/06/15 06:08:36;;;;;;;1.20;0.90;;;;;;;20.39;56.18;99188.91;5112264;27;39686;-72
2021/06/15 06:11:04;;;;;;;0.83;0.73;;;;;;;20.43;55.94;99190.28;5111050;28;41419;-74
2021/06/15 06:13:33;;;;;;;0.90;0.90;;;;;;;20.54;55.93;99191.06;5111689;27;42627;-75
2021/06/15 06:16:05;;;;;;;1.37;1.30;;;;;;;20.66;55.46;99196.06;5101875;28;42055;-78
2021/06/15 06:18:34;;;;;;;1.50;1.07;;;;;;;20.76;55.08;99206.81;5111017;28;39667;-74
2021/06/15 06:21:04;;;;;;;1.10;1.00;;;;;;;20.94;54.76;99201.44;5110718;27;41641;-80
2021/06/15 06:23:31;;;;;;;0.80;0.77;;;;;;;21.15;54.66;99208.19;5110731;27;42419;-74
2021/06/15 06:26:00;;;;;;;0.90;0.90;;;;;;;21.33;54.45;99207.38;5107325;28;42181;-76
2021/06/15 06:28:28;;;;;;;0.87;0.87;;;;;;;21.58;53.72;99213.81;5110296;28;39825;-80
2021/06/15 06:30:56;;;;;;;0.90;0.80;;;;;;;21.73;53.62;99212.25;5110375;27;41724;-79
2021/06/15 06:33:24;;;;;;;1.10;1.00;;;;;;;21.83;53.39;99218.38;5110702;28;43623;-79
2021/06/15 06:35:51;;;;;;;1.23;1.00;;;;;;;21.88;52.86;99222.25;5110384;27;42728;-75
2021/06/15 06:38:19;;;;;;;2.83;1.70;;;;;;;22.03;52.91;99222.56;5108933;28;40589;-77
2021/06/15 06:40:47;;;;;;;1.07;1.00;;;;;;;22.27;53.10;99221.00;5092066;28;40746;-75
2021/06/15 06:43:16;;;;;;;1.13;1.03;;;;;;;22.48;52.22;99219.59;5109561;27;43393;-77
2021/06/15 06:45:44;;;;;;;1.07;1.07;;;;;;;22.82;51.81;99226.84;5110108;28;42253;-86
2021/06/15 06:48:12;;;;;;;1.07;0.97;;;;;;;23.10;50.76;99233.66;5110299;28;39739;-78
2021/06/15 06:50:40;;;;;;;1.23;1.03;;;;;;;23.22;50.12;99232.31;5111642;27;42364;-84
2021/06/15 06:53:08;;;;;;;1.43;1.10;;;;;;;23.34;50.60;99218.47;5093701;28;41743;-83
2021/06/15 06:55:35;;;;;;;1.27;1.07;;;;;;;23.43;50.04;99218.31;5093446;28;41373;-77
2021/06/15 06:58:04;;;;;;;2.73;2.30;;;;;;;23.52;49.84;99219.16;5110334;27;40854;-76
2021/06/15 07:00:33;;;;;;;1.83;1.63;;;;;;;23.66;49.45;99225.75;5092735;28;40781;-82
2021/06/15 07:03:01;;;;;;;1.67;1.57;;;;;;;24.04;48.78;99225.03;5109559;28;42251;-78
2021/06/15 07:05:29;;;;;;;1.33;1.23;;;;;;;24.81;47.06;99245.09;5111850;27;42221;-79
2021/06/15 07:07:57;;;;;;;1.23;0.90;;;;;;;25.42;45.54;99238.81;5111596;27;39530;-82
2021/06/15 07:10:24;;;;;;;2.73;1.90;;;;;;;25.68;45.08;99243.03;5110968;27;41692;-76
2021/06/15 07:12:52;;;;;;;2.57;1.60;;;;;;;25.74;45.39;99242.28;5109133;28;43456;-80
2021/06/15 07:15:21;;;;;;;1.20;1.10;;;;;;;25.72;45.31;99236.19;5108941;28;42709;-77
2021/06/15 07:17:50;;;;;;;1.47;1.37;;;;;;;25.70;45.56;99240.97;5110047;28;39779;-77
2021/06/15 07:20:18;;;;;;;1.17;1.07;;;;;;;25.51;44.88;99206.19;5109060;28;42257;-80
2021/06/15 07:22:46;;;;;;;0.90;0.90;;;;;;;25.81;44.20;99256.81;5109831;28;43189;-76
2021/06/15 07:25:15;;;;;;;1.47;1.37;;;;;;;26.06;44.00;99238.44;5092555;28;41675;-81
2021/06/15 07:27:43;;;;;;;1.43;1.20;;;;;;;26.70;43.61;99250.44;5109428;28;39921;-78
2021/06/15 07:30:11;;;;;;;1.07;0.83;;;;;;;27.89;41.19;99254.47;5108486;28;41531;-82
2021/06/15 07:32:39;;;;;;;1.50;1.40;;;;;;;28.98;38.68;99269.22;5111090;27;41919;-76
2021/06/15 07:35:11;;;;;;;1.53;1.43;;;;;;;29.70;37.71;99273.19;5108936;28;41466;-79
2021/06/15 07:37:39;;;;;;;0.97;0.97;;;;;;;30.01;37.02;99270.75;5092428;28;39814;-86
2021/06/15 07:40:09;;;;;;;1.30;1.20;;;;;;;30.49;36.25;99268.56;5109667;27;41898;-81
2021/06/15 07:42:37;;;;;;;1.57;1.40;;;;;;;31.16;35.47;99269.22;5107458;27;43453;-81
2021/06/15 07:45:05;;;;;;;1.43;1.20;;;;;;;31.76;33.98;99290.56;5092403;28;41435;-78
2021/06/15 07:47:33;;;;;;;1.23;1.13;;;;;;;32.55;32.53;99285.44;5108808;28;40367;-78
2021/06/15 07:50:01;;;;;;;1.20;1.10;;;;;;;33.57;31.62;99289.28;5091860;28;41849;-78
2021/06/15 07:52:31;;;;;;;2.40;1.20;;;;;;;34.70;29.99;99305.59;5110679;27;42648;-80
2021/06/15 07:54:59;;;;;;;0.93;0.87;;;;;;;35.81;29.20;99298.84;5109430;27;42786;-82
2021/06/15 07:57:27;;;;;;;2.03;1.33;;;;;;;36.85;27.43;99302.69;5109843;27;39642;-84
2021/06/15 07:59:54;;;;;;;1.40;1.30;;;;;;;37.34;26.52;99294.53;5092259;28;40768;-85
2021/06/15 08:02:22;;;;;;;1.40;1.30;;;;;;;37.82;25.54;99307.50;5109791;28;43226;-76
2021/06/15 08:04:50;;;;;;;1.50;1.40;;;;;;;37.83;24.72;99306.41;5109125;28;42365;-81
2021/06/15 08:07:18;;;;;;;1.67;1.07;;;;;;;37.29;24.53;99317.41;5108927;28;40090;-78
2021/06/15 08:09:47;;;;;;;1.67;0.93;;;;;;;36.49;26.04;99297.75;5108180;28;41564;-75
2021/06/15 08:12:16;;;;;;;1.60;1.50;;;;;;;36.14;27.04;99296.06;5109867;27;43595;-82
2021/06/15 08:14:44;;;;;;;1.23;1.13;;;;;;;36.22;26.01;99286.59;5107472;28;42590;-78
2021/06/15 08:17:12;;;;;;;1.10;1.10;;;;;;;36.36;25.74;99293.41;5109236;27;39861;-80
2021/06/15 08:19:39;;;;;;;1.50;1.40;;;;;;;36.99;24.88;99300.41;5110567;27;41869;-86
2021/06/15 08:22:07;;;;;;;1.80;1.40;;;;;;;37.36;24.83;99275.72;5108058;28;42769;-77
2021/06/15 08:24:35;;;;;;;1.00;1.00;;;;;;;37.84;25.09;99285.91;5109158;27;41733;-83
2021/06/15 08:27:05;;;;;;;1.20;1.10;;;;;;;37.96;24.30;99282.97;5092619;28;39129;-83
2021/06/15 08:29:33;;;;;;;0.70;0.70;;;;;;;38.09;24.34;99297.22;5108370;28;41855;-83
2021/06/15 08:32:00;;;;;;;1.00;0.90;;;;;;;37.99;24.22;99280.53;5109858;27;42655;-83
2021/06/15 08:34:28;;;;;;;1.00;1.00;;;;;;;37.80;23.89;99297.78;5109141;27;42773;-82
2021/06/15 08:36:56;;;;;;;1.27;1.23;;;;;;;37.26;24.40;99262.66;5091899;28;40239;-83
2021/06/15 08:39:23;;;;;;;1.00;1.00;;;;;;;37.44;24.31;99299.31;5108591;28;42377;-82
2021/06/15 08:41:51;;;;;;;1.30;1.17;;;;;;;37.52;24.54;99301.59;5108257;28;43895;-87
2021/06/15 08:44:20;;;;;;;1.23;1.00;;;;;;;37.76;24.66;99294.69;5107027;28;42528;-80
2021/06/15 08:46:48;;;;;;;1.60;1.50;;;;;;;38.16;24.46;99302.56;5108277;28;39685;-85
2021/06/15 08:49:15;;;;;;;1.10;1.00;;;;;;;38.76;23.43;99301.31;5108995;27;42540;-78
2021/06/15 08:51:45;;;;;;;1.40;1.30;;;;;;;39.58;23.49;99313.59;5108582;28;42508;-79
2021/06/15 08:54:15;;;;;;;1.30;1.20;;;;;;;40.04;22.06;99318.13;5107635;28;41989;-80
2021/06/15 08:56:44;;;;;;;1.30;1.20;;;;;;;40.29;21.97;99313.72;5092524;28;38747;-80
2021/06/15 08:59:18;;;;;;;1.20;1.10;;;;;;;40.53;21.46;99309.25;5108450;27;41770;-78
2021/06/15 09:01:49;;;;;;;1.15;1.13;;;;;;;40.51;21.24;99308.69;5089263;28;43478;-80
2021/06/15 09:04:16;;;;;;;1.10;1.10;;;;;;;40.96;21.98;99302.19;5091210;28;42591;-80
2021/06/15 09:06:44;;;;;;;1.35;1.30;;;;;;;41.49;21.47;99295.00;5109557;27;39561;-78
2021/06/15 09:09:12;;;;;;;1.20;1.20;;;;;;;41.72;20.38;99301.84;5090416;28;40706;-84
2021/06/15 09:12:01;;;;;;;1.10;1.10;;;;;;;41.68;20.27;99305.47;5108203;28;43499;-86
2021/06/15 09:14:41;;;;;;;1.30;1.20;;;;;;;41.44;19.47;99297.81;5103126;28;41658;-85
2021/06/15 09:17:36;;;;;;;1.10;1.10;;;;;;;41.14;19.99;99307.16;5109055;27;40644;-83
2021/06/15 09:20:18;;;;;;;1.02;1.02;;;;;;;41.28;20.88;99287.91;5109337;27;41395;-81
2021/06/15 09:22:46;;;;;;;0.82;0.82;;;;;;;41.58;21.25;99279.41;5117894;27;43419;-87
2021/06/15 09:25:16;;;;;;;1.23;1.13;;;;;;;42.07;20.94;99295.19;5110273;27;41978;-80
2021/06/15 09:27:45;;;;;;;1.52;1.42;;;;;;;42.36;20.09;99297.16;5107775;28;39854;-90
2021/06/15 09:30:14;;;;;;;1.83;1.10;;;;;;;42.31;20.10;99289.69;5107687;27;42114;-86
2021/06/15 09:32:44;;;;;;;1.20;1.10;;;;;;;42.38;20.79;99284.66;5091180;28;41777;-84
2021/06/15 09:35:14;;;;;;;1.48;1.27;;;;;;;42.59;20.19;99274.09;5107706;27;42556;-83
2021/06/15 09:37:43;;;;;;;1.00;1.00;;;;;;;42.89;20.00;99290.50;5109653;28;39653;-88
2021/06/15 09:40:14;;;;;;;0.85;0.85;;;;;;;42.60;20.45;99286.91;5108878;28;42536;-82
2021/06/15 09:42:58;;;;;;;1.15;1.15;;;;;;;42.03;18.95;99294.13;5107200;28;44422;-78
2021/06/15 09:45:28;;;;;;;1.75;1.63;;;;;;;41.57;20.54;99279.69;5107194;28;42805;-80
2021/06/15 09:48:21;;;;;;;1.00;1.00;;;;;;;41.26;19.63;99292.91;5108298;27;39855;-81
2021/06/15 09:50:50;;;;;;;2.15;1.33;;;;;;;41.80;19.76;99297.59;5089084;28;40706;-80
2021/06/15 09:53:24;;;;;;;1.10;1.10;;;;;;;42.56;18.59;99291.41;5107659;28;41681;-81
2021/06/15 09:55:53;;;;;;;1.23;1.00;;;;;;;43.38;18.03;99308.88;5108277;27;42158;-74
2021/06/15 09:58:41;;;;;;;0.88;0.88;;;;;;;44.21;17.64;99296.16;5107802;28;39559;-89
2021/06/15 10:01:09;;;;;;;1.35;1.25;;;;;;;44.61;17.62;99286.25;5107881;27;41441;-78
2021/06/15 10:03:38;;;;;;;1.05;1.05;;;;;;;44.44;16.88;99288.78;5107839;28;43351;-82
2021/06/15 10:06:05;;;;;;;1.17;1.10;;;;;;;44.23;16.30;99285.53;5109381;27;41718;-87
2021/06/15 10:08:44;;;;;;;1.15;1.10;;;;;;;43.85;16.85;99295.91;5112708;27;39839;-86
2021/06/15 10:11:12;;;;;;;1.60;1.50;;;;;;;43.51;18.13;99277.44;5110669;27;41524;-76
2021/06/15 10:13:40;;;;;;;1.05;1.00;;;;;;;42.95;18.67;99269.78;5102431;28;41743;-72
2021/06/15 10:16:07;;;;;;;1.10;1.00;;;;;;;41.89;18.71;99271.66;5122435;27;42045;-74
2021/06/15 10:18:35;;;;;;;1.83;1.20;;;;;;;41.06;20.21;99262.41;5120473;28;40746;-74
2021/06/15 10:21:05;;;;;;;1.70;0.90;;;;;;;40.09;20.77;99245.97;5101966;28;41234;-72
2021/06/15 10:23:33;;;;;;;1.57;1.47;;;;;;;39.46;21.79;99228.72;5122284;27;42579;-75
2021/06/15 10:26:01;;;;;;;1.43;1.33;;;;;;;39.50;22.66;99246.50;5121180;27;42503;-74
2021/06/15 10:28:31;;;;;;;1.70;1.60;;;;;;;39.48;23.56;99245.94;5103451;28;38648;-75
2021/06/15 10:31:03;;;;;;;1.27;1.27;;;;;;;39.11;22.81;99232.25;5121704;27;41532;-77
2021/06/15 10:33:42;;;;;;;1.30;1.20;;;;;;;39.03;23.62;99230.00;5114799;28;42809;-78
2021/06/15 10:36:12;;;;;;;0.87;0.87;;;;;;;38.94;23.85;99237.16;5111063;27;42954;-74
2021/06/15 10:38:45;;;;;;;1.10;0.97;;;;;;;38.76;22.16;99244.00;5111066;27;39697;-81
2021/06/15 10:41:30;;;;;;;1.23;1.20;;;;;;;38.59;23.66;99235.03;5108675;28;42834;-75
2021/06/15 10:44:00;;;;;;;1.00;1.00;;;;;;;38.37;23.74;99231.56;5111207;27;42726;-79
2021/06/15 10:46:33;;;;;;;1.13;1.03;;;;;;;37.94;23.06;99230.72;5090839;28;41891;-74
2021/06/15 10:49:02;;;;;;;1.30;1.20;;;;;;;37.54;23.49;99233.94;5097573;28;39050;-78
2021/06/15 10:51:36;;;;;;;0.93;0.93;;;;;;;37.25;23.99;99224.22;5088946;28;41729;-82
2021/06/15 10:54:28;;;;;;;1.23;1.00;;;;;;;36.90;24.91;99219.13;5103351;28;42610;-74
2021/06/15 10:57:16;;;;;;;0.80;0.80;;;;;;;36.67;25.89;99207.22;5109291;28;41984;-76
2021/06/15 11:00:05;;;;;;;1.20;1.10;;;;;;;36.39;26.13;99196.34;5110267;28;40432;-75
2021/06/15 11:02:33;;;;;;;1.40;1.30;;;;;;;36.33;25.08;99206.50;5110400;28;40228;-77
2021/06/15 11:05:44;;;;;;;0.90;0.90;;;;;;;36.21;25.60;99207.66;5084562;28;42674;-75
2021/06/15 11:08:21;;;;;;;1.70;1.60;;;;;;;36.05;26.78;99203.00;5108470;28;42123;-79
2021/06/15 11:10:52;;;;;;;1.00;1.00;;;;;;;35.92;25.01;99212.44;5110856;28;39030;-79
2021/06/15 11:13:40;;;;;;;0.97;0.97;;;;;;;35.80;25.95;99178.63;5109990;27;41822;-79
2021/06/15 11:16:08;;;;;;;1.03;0.90;;;;;;;35.94;26.18;99205.59;5090781;28;43646;-75
2021/06/15 11:18:36;;;;;;;1.37;0.90;;;;;;;35.98;26.16;99192.13;5090920;28;42420;-79
2021/06/15 11:21:25;;;;;;;0.80;0.80;;;;;;;35.97;24.88;99196.84;5089427;28;39814;-78
2021/06/15 11:24:18;;;;;;;0.60;0.60;;;;;;;36.03;25.76;99183.13;5101119;28;41719;-78
2021/06/15 11:26:47;;;;;;;0.70;0.70;;;;;;;36.10;24.76;99192.06;5110202;27;43456;-79
2021/06/15 11:29:29;;;;;;;1.10;1.10;;;;;;;36.33;24.82;99195.47;5106626;28;41992;-79
2021/06/15 11:32:21;;;;;;;0.70;0.70;;;;;;;36.66;24.37;99189.00;5089404;28;40184;-77
2021/06/15 11:35:18;;;;;;;0.80;0.80;;;;;;;36.85;23.15;99197.78;5090967;28;41770;-80
2021/06/15 11:37:49;;;;;;;1.67;1.57;;;;;;;37.03;25.31;99178.13;5089090;28;42844;-75
2021/06/15 11:40:27;;;;;;;0.90;0.90;;;;;;;37.35;25.49;99185.63;5109709;27;42832;-77
2021/06/15 11:42:56;;;;;;;0.97;0.90;;;;;;;37.60;23.12;99196.94;5109065;28;39603;-76
2021/06/15 11:45:33;;;;;;;0.90;0.90;;;;;;;38.07;23.66;99191.53;5110527;27;41433;-80
2021/06/15 11:48:17;;;;;;;0.70;0.70;;;;;;;38.73;22.92;99203.00;5126111;27;42652;-79
2021/06/15 11:50:46;;;;;;;1.20;1.10;;;;;;;39.54;22.92;99190.50;5104142;28;42912;-78
2021/06/15 11:53:16;;;;;;;5.50;1.07;;;;;;;40.09;20.09;99209.91;5090390;28;39840;-78
2021/06/15 11:55:47;;;;;;;1.07;1.07;;;;;;;40.24;21.50;99194.34;5090664;28;42322;-73
2021/06/15 11:58:17;;;;;;;1.00;1.00;;;;;;;40.19;21.63;99198.78;5090049;28;42757;-74